createdAt,value
2023-01-07T00:00:16.052Z,13.50
2023-01-07T00:05:18.792Z,15.17
2023-01-07T00:10:21.577Z,11.60
2023-01-07T00:15:24.282Z,13.13
2023-01-07T00:20:27.017Z,14.80
2023-01-07T00:25:30.025Z,9.38
2023-01-07T00:30:32.696Z,13.23
2023-01-07T00:35:38.364Z,14.38
2023-01-07T00:40:41.015Z,16.27
2023-01-07T00:45:44.736Z,15.93
2023-01-07T00:50:48.803Z,12.70
2023-01-07T00:55:52.276Z,15.73
2023-01-07T01:00:56.765Z,18.33
2023-01-07T01:06:05.183Z,15.70
2023-01-07T01:11:10.102Z,17.80
2023-01-07T01:16:18.604Z,18.75
2023-01-07T01:21:21.340Z,16.83
2023-01-07T01:26:24.398Z,20.92
2023-01-07T01:31:27.461Z,13.95
2023-01-07T01:36:30.106Z,17.23
2023-01-07T01:41:35.423Z,17.40
2023-01-07T01:46:42.452Z,11.43
2023-01-07T01:51:58.826Z,14.00
2023-01-07T01:57:04.699Z,17.05
2023-01-07T02:02:09.151Z,14.17
2023-01-07T02:07:17.775Z,14.80
2023-01-07T02:12:46.355Z,15.77
2023-01-07T02:18:26.271Z,16.02
2023-01-07T02:24:00.044Z,20.08
2023-01-07T02:29:14.516Z,13.60
2023-01-07T02:34:28.798Z,23.02
2023-01-07T02:39:50.227Z,20.00
2023-01-07T02:45:17.562Z,15.68
2023-01-07T02:50:21.869Z,17.85
2023-01-07T02:56:04.488Z,16.57
2023-01-07T03:01:41.071Z,18.77
2023-01-07T03:06:52.931Z,21.27
2023-01-07T03:12:04.579Z,16.88
2023-01-07T03:17:10.426Z,17.85
2023-01-07T03:22:15.135Z,18.33
2023-01-07T03:27:20.751Z,19.85
2023-01-07T03:32:30.067Z,19.03
2023-01-07T03:37:34.365Z,20.17
2023-01-07T03:42:40.907Z,21.20
2023-01-07T03:47:52.870Z,18.63
2023-01-07T03:52:56.173Z,21.73
2023-01-07T03:57:59.950Z,18.87
2023-01-07T04:03:02.702Z,20.05
2023-01-07T04:08:10.344Z,20.45
2023-01-07T04:13:14.974Z,17.10
2023-01-07T04:18:20.731Z,20.13
2023-01-07T04:23:23.440Z,17.23
2023-01-07T04:28:28.234Z,21.58
2023-01-07T04:33:31.081Z,20.75
2023-01-07T04:38:34.082Z,21.00
2023-01-07T04:43:36.875Z,18.92
2023-01-07T04:48:41.564Z,21.30
2023-01-07T04:53:44.655Z,19.17
2023-01-07T04:58:48.082Z,18.55
2023-01-07T05:03:51.095Z,19.97
2023-01-07T05:08:54.447Z,16.25
2023-01-07T05:14:01.184Z,21.80
2023-01-07T05:19:07.062Z,20.73
2023-01-07T05:24:14.305Z,24.45
2023-01-07T05:29:17.213Z,19.67
2023-01-07T05:34:20.639Z,22.63
2023-01-07T05:39:23.493Z,20.00
2023-01-07T05:44:26.239Z,33.85
2023-01-07T05:49:28.805Z,23.42
2023-01-07T05:54:31.479Z,24.73
2023-01-07T05:59:34.993Z,22.15
2023-01-07T06:04:37.658Z,19.53
2023-01-07T06:09:40.331Z,25.35
2023-01-07T06:14:42.846Z,23.02
2023-01-07T06:19:46.345Z,22.53
2023-01-07T06:24:49.451Z,22.77
2023-01-07T06:29:52.045Z,19.77
2023-01-07T06:34:54.884Z,21.52
2023-01-07T06:39:58.484Z,24.63
2023-01-07T06:45:01.256Z,18.50
2023-01-07T06:50:04.096Z,17.80
2023-01-07T06:55:07.124Z,19.97
2023-01-07T07:00:10.401Z,14.00
2023-01-07T07:05:13.557Z,21.52
2023-01-07T07:10:16.443Z,19.27
2023-01-07T07:15:19.370Z,17.80
2023-01-07T07:20:22.366Z,16.87
2023-01-07T07:25:26.411Z,18.90
2023-01-07T07:30:45.873Z,19.20
2023-01-07T07:35:50.615Z,20.23
2023-01-07T07:40:53.551Z,24.52
2023-01-07T07:45:58.483Z,19.87
2023-01-07T07:51:01.185Z,21.67
2023-01-07T07:56:04.063Z,20.42
2023-01-07T08:01:06.935Z,18.00
2023-01-07T08:06:11.894Z,17.52
2023-01-07T08:11:14.586Z,19.97
2023-01-07T08:16:17.463Z,17.67
2023-01-07T08:21:20.250Z,23.35
2023-01-07T08:26:23.043Z,22.30
2023-01-07T08:31:26.049Z,21.27
2023-01-07T08:36:28.900Z,18.10
2023-01-07T08:41:31.578Z,19.90
2023-01-07T08:46:34.298Z,17.98
2023-01-07T08:51:37.604Z,20.17
2023-01-07T08:56:40.468Z,16.73
2023-01-07T09:01:43.443Z,14.67
2023-01-07T09:06:46.327Z,15.80
2023-01-07T09:11:49.111Z,13.25
2023-01-07T09:16:51.868Z,11.57
2023-01-07T09:21:54.630Z,11.82
2023-01-07T09:26:57.554Z,13.30
2023-01-07T09:32:00.181Z,11.57
2023-01-07T09:37:02.971Z,12.20
2023-01-07T09:42:18.837Z,10.67
2023-01-07T09:47:25.256Z,11.18
2023-01-07T09:52:37.176Z,9.33
2023-01-07T09:57:39.935Z,9.10
2023-01-07T10:03:30.416Z,9.57
2023-01-07T10:08:48.537Z,8.27
2023-01-07T10:14:02.993Z,9.10
2023-01-07T10:19:20.919Z,6.80
2023-01-07T10:24:32.329Z,7.43
2023-01-07T10:29:51.097Z,7.20
2023-01-07T10:34:57.487Z,10.00
2023-01-07T10:40:09.106Z,8.32
2023-01-07T10:45:18.760Z,6.97
2023-01-07T10:50:37.458Z,9.82
2023-01-07T10:56:07.039Z,7.78
2023-01-07T11:01:21.727Z,7.03
2023-01-07T11:06:39.982Z,6.72
2023-01-07T11:11:43.837Z,8.47
2023-01-07T11:16:52.070Z,8.98
2023-01-07T11:21:54.927Z,8.48
2023-01-07T11:27:09.653Z,8.47
2023-01-07T11:32:28.827Z,8.90
2023-01-07T11:37:46.477Z,7.67
2023-01-07T11:43:00.202Z,8.27
2023-01-07T11:48:10.686Z,9.52
2023-01-07T11:53:16.203Z,10.07
2023-01-07T11:58:28.427Z,10.60
2023-01-07T12:03:34.201Z,10.60
2023-01-07T12:08:37.648Z,10.40
2023-01-07T12:13:48.345Z,10.23
2023-01-07T12:19:15.426Z,10.00
2023-01-07T12:24:48.333Z,11.98
2023-01-07T12:30:10.457Z,9.17
2023-01-07T12:35:19.180Z,11.00
2023-01-07T12:40:39.237Z,11.25
2023-01-07T12:46:04.920Z,10.50
2023-01-07T12:52:02.925Z,10.38
2023-01-07T12:57:23.755Z,11.57
2023-01-07T13:02:38.657Z,7.88
2023-01-07T13:07:59.579Z,9.07
2023-01-07T13:13:09.816Z,9.23
2023-01-07T13:18:12.641Z,10.95
2023-01-07T13:23:52.292Z,10.70
2023-01-07T13:29:44.027Z,9.77
2023-01-07T13:35:16.964Z,10.27
2023-01-07T13:41:12.961Z,11.43
2023-01-07T13:46:21.744Z,10.10
2023-01-07T13:51:34.079Z,9.13
2023-01-07T13:56:38.603Z,7.93
2023-01-07T14:02:21.224Z,6.72
2023-01-07T14:07:24.281Z,7.80
2023-01-07T14:12:51.618Z,9.02
2023-01-07T14:18:27.927Z,12.13
2023-01-07T14:23:59.088Z,12.38
2023-01-07T14:29:42.675Z,12.52
2023-01-07T14:34:59.539Z,11.10
2023-01-07T14:40:21.267Z,15.55
2023-01-07T14:45:42.412Z,15.43
2023-01-07T14:50:55.120Z,16.38
2023-01-07T14:56:09.476Z,17.95
2023-01-07T15:01:18.425Z,17.53
2023-01-07T15:06:36.907Z,18.88
2023-01-07T15:12:02.021Z,16.43
2023-01-07T15:17:05.587Z,18.42
2023-01-07T15:22:36.640Z,24.00
2023-01-07T15:28:03.957Z,23.43
2023-01-07T15:33:31.354Z,27.52
2023-01-07T15:38:47.898Z,24.87
2023-01-07T15:43:52.617Z,25.35
2023-01-07T15:49:22.684Z,28.77
2023-01-07T15:54:32.152Z,27.10
2023-01-07T15:59:48.140Z,33.00
2023-01-07T16:04:53.473Z,25.27
2023-01-07T16:09:58.181Z,25.08
2023-01-07T16:15:04.724Z,20.90
2023-01-07T16:20:20.389Z,20.53
2023-01-07T16:25:40.559Z,21.10
2023-01-07T16:30:44.440Z,25.83
2023-01-07T16:35:49.958Z,23.05
2023-01-07T16:40:54.797Z,21.65
2023-01-07T16:46:19.136Z,17.97
2023-01-07T16:51:41.464Z,23.10
2023-01-07T16:57:10.260Z,18.50
2023-01-07T17:02:31.354Z,15.98
2023-01-07T17:07:34.383Z,24.33
2023-01-07T17:12:39.657Z,23.23
2023-01-07T17:17:42.479Z,21.02
2023-01-07T17:22:46.085Z,21.67
2023-01-07T17:27:53.291Z,18.48
2023-01-07T17:32:56.056Z,17.48
2023-01-07T17:37:58.806Z,22.93
2023-01-07T17:43:20.150Z,23.90
2023-01-07T17:48:22.851Z,23.47
2023-01-07T17:53:35.904Z,21.83
2023-01-07T17:58:41.438Z,31.13
2023-01-07T18:03:47.942Z,31.63
2023-01-07T18:08:52.535Z,32.90
2023-01-07T18:13:55.357Z,36.70
2023-01-07T18:18:58.104Z,68.53
2023-01-07T18:24:00.843Z,58.58
2023-01-07T18:29:03.617Z,56.07
2023-01-07T18:34:06.377Z,51.20
2023-01-07T18:39:17.391Z,42.97
2023-01-07T18:44:23.613Z,36.85
2023-01-07T18:49:26.378Z,35.08
2023-01-07T18:54:31.515Z,47.63
2023-01-07T18:59:34.472Z,36.40
2023-01-07T19:04:40.036Z,41.10
2023-01-07T19:09:42.895Z,41.85
2023-01-07T19:14:45.633Z,38.08
2023-01-07T19:19:49.143Z,28.23
2023-01-07T19:24:52.156Z,40.42
2023-01-07T19:29:55.101Z,37.57
2023-01-07T19:34:57.919Z,44.00
2023-01-07T19:40:00.812Z,36.22
2023-01-07T19:45:03.794Z,54.10
2023-01-07T19:50:07.210Z,49.80
2023-01-07T19:55:10.151Z,49.23
2023-01-07T20:00:13.253Z,40.20
2023-01-07T20:05:16.362Z,49.13
2023-01-07T20:10:19.259Z,41.63
2023-01-07T20:15:22.289Z,53.03
2023-01-07T20:20:25.157Z,51.63
2023-01-07T20:25:28.248Z,44.83
2023-01-07T20:30:31.085Z,58.03
2023-01-07T20:35:35.282Z,72.10
2023-01-07T20:40:44.082Z,66.93
2023-01-07T20:45:47.165Z,57.67
2023-01-07T20:50:50.102Z,53.15
2023-01-07T20:56:02.870Z,63.88
2023-01-07T21:01:08.384Z,62.40
2023-01-07T21:06:13.023Z,50.90
2023-01-07T21:11:20.984Z,57.67
2023-01-07T21:16:25.306Z,67.57
2023-01-07T21:21:28.261Z,55.05
2023-01-07T21:26:31.527Z,61.27
2023-01-07T21:31:34.552Z,45.65
2023-01-07T21:36:37.988Z,55.60
2023-01-07T21:41:40.998Z,49.78
2023-01-07T21:46:43.800Z,49.92
2023-01-07T21:51:46.654Z,34.67
2023-01-07T21:56:49.681Z,43.58
2023-01-07T22:01:53.311Z,46.53
2023-01-07T22:06:56.219Z,29.58
2023-01-07T22:11:58.997Z,38.28
2023-01-07T22:17:01.947Z,40.97
2023-01-07T22:22:06.120Z,37.42
2023-01-07T22:27:08.957Z,38.10
2023-01-07T22:32:11.757Z,46.85
2023-01-07T22:37:18.130Z,37.90
2023-01-07T22:42:30.264Z,44.17
2023-01-07T22:47:38.156Z,65.05
2023-01-07T22:52:42.898Z,85.57
2023-01-07T22:57:45.690Z,60.13
2023-01-07T23:02:48.511Z,60.55
2023-01-07T23:07:51.281Z,73.53
2023-01-07T23:12:54.374Z,65.22
2023-01-07T23:17:57.229Z,55.83
2023-01-07T23:23:00.912Z,68.35
2023-01-07T23:28:04.987Z,69.55
2023-01-07T23:33:08.081Z,71.87
2023-01-07T23:38:11.209Z,63.92
2023-01-07T23:43:13.851Z,58.83
2023-01-07T23:48:16.419Z,61.78
2023-01-07T23:53:19.111Z,66.22
2023-01-07T23:58:23.243Z,67.87
